createdAt,value
2023-04-19T00:02:18.393Z,100.00
2023-04-19T00:04:48.318Z,100.00
2023-04-19T00:07:16.958Z,100.00
2023-04-19T00:09:44.427Z,100.00
2023-04-19T00:12:11.811Z,100.00
2023-04-19T00:14:39.197Z,100.00
2023-04-19T00:17:06.640Z,100.00
2023-04-19T00:19:34.042Z,100.00
2023-04-19T00:22:02.749Z,100.00
2023-04-19T00:24:30.177Z,100.00
2023-04-19T00:26:58.947Z,100.00
2023-04-19T00:29:26.339Z,100.00
2023-04-19T00:31:53.813Z,100.00
2023-04-19T00:34:21.401Z,100.00
2023-04-19T00:36:48.884Z,100.00
2023-04-19T00:39:17.594Z,100.00
2023-04-19T00:41:45.013Z,100.00
2023-04-19T00:44:12.459Z,100.00
2023-04-19T00:46:40.285Z,100.00
2023-04-19T00:49:08.249Z,100.00
2023-04-19T00:51:36.072Z,100.00
2023-04-19T00:54:04.243Z,100.00
2023-04-19T00:56:34.977Z,100.00
2023-04-19T00:59:02.958Z,100.00
2023-04-19T01:01:30.373Z,100.00
2023-04-19T01:03:57.922Z,100.00
2023-04-19T01:06:25.561Z,100.00
2023-04-19T01:08:52.930Z,100.00
2023-04-19T01:11:20.446Z,100.00
2023-04-19T01:13:49.152Z,100.00
2023-04-19T01:16:16.710Z,100.00
2023-04-19T01:18:44.123Z,100.00
2023-04-19T01:21:12.731Z,100.00
2023-04-19T01:23:41.453Z,100.00
2023-04-19T01:26:08.886Z,100.00
2023-04-19T01:28:36.272Z,100.00
2023-04-19T01:31:03.777Z,100.00
2023-04-19T01:33:31.230Z,100.00
2023-04-19T01:35:58.632Z,100.00
2023-04-19T01:38:26.046Z,100.00
2023-04-19T01:40:56.760Z,100.00
2023-04-19T01:43:24.144Z,100.00
2023-04-19T01:45:51.629Z,99.93
2023-04-19T01:48:19.055Z,99.80
2023-04-19T01:50:46.472Z,100.00
2023-04-19T01:53:13.988Z,100.00
2023-04-19T01:55:41.392Z,100.00
2023-04-19T01:58:10.061Z,100.00
2023-04-19T02:00:37.480Z,100.00
2023-04-19T02:03:05.112Z,100.00
2023-04-19T02:05:32.708Z,100.00
2023-04-19T02:08:01.239Z,100.00
2023-04-19T02:10:28.635Z,100.00
2023-04-19T02:12:56.018Z,100.00
2023-04-19T02:15:24.697Z,100.00
2023-04-19T02:17:52.134Z,100.00
2023-04-19T02:20:19.667Z,100.00
2023-04-19T02:22:47.842Z,100.00
2023-04-19T02:25:15.649Z,100.00
2023-04-19T02:27:43.066Z,100.00
2023-04-19T02:30:11.436Z,99.82
2023-04-19T02:32:40.205Z,100.00
2023-04-19T02:35:08.314Z,99.93
2023-04-19T02:37:35.674Z,99.86
2023-04-19T02:40:03.110Z,100.00
2023-04-19T02:42:30.636Z,99.79
2023-04-19T02:44:58.234Z,100.00
2023-04-19T02:47:25.659Z,100.00
2023-04-19T02:49:54.398Z,100.00
2023-04-19T02:52:21.797Z,100.00
2023-04-19T02:54:49.344Z,99.68
2023-04-19T02:57:16.728Z,99.31
2023-04-19T02:59:44.090Z,99.87
2023-04-19T03:02:11.553Z,100.00
2023-04-19T03:04:38.931Z,99.78
2023-04-19T03:07:10.739Z,100.00
2023-04-19T03:09:38.251Z,100.00
2023-04-19T03:12:06.237Z,100.00
2023-04-19T03:14:34.623Z,99.38
2023-04-19T03:17:02.015Z,100.00
2023-04-19T03:19:29.484Z,100.00
2023-04-19T03:21:56.889Z,100.00
2023-04-19T03:24:30.011Z,100.00
2023-04-19T03:26:57.494Z,100.00
2023-04-19T03:29:25.224Z,100.00
2023-04-19T03:31:52.712Z,100.00
2023-04-19T03:34:20.190Z,100.00
2023-04-19T03:36:47.558Z,100.00
2023-04-19T03:39:14.943Z,100.00
2023-04-19T03:41:43.699Z,100.00
2023-04-19T03:44:11.082Z,100.00
2023-04-19T03:46:38.558Z,100.00
2023-04-19T03:49:06.201Z,100.00
2023-04-19T03:51:33.622Z,100.00
2023-04-19T03:54:01.336Z,100.00
2023-04-19T03:56:28.866Z,100.00
2023-04-19T03:58:57.627Z,100.00
2023-04-19T04:01:25.362Z,100.00
2023-04-19T04:03:53.140Z,100.00
2023-04-19T04:06:20.732Z,100.00
2023-04-19T04:08:48.121Z,100.00
2023-04-19T04:11:15.561Z,100.00
2023-04-19T04:13:43.157Z,100.00
2023-04-19T04:16:11.951Z,99.79
2023-04-19T04:18:39.555Z,98.79
2023-04-19T04:21:07.421Z,97.51
2023-04-19T04:23:35.029Z,97.62
2023-04-19T04:26:04.244Z,95.74
2023-04-19T04:28:32.153Z,95.47
2023-04-19T04:31:00.319Z,95.61
2023-04-19T04:33:29.380Z,96.13
2023-04-19T04:35:57.843Z,96.76
2023-04-19T04:38:25.572Z,94.36
2023-04-19T04:40:54.457Z,92.72
2023-04-19T04:43:22.627Z,90.68
2023-04-19T04:45:50.526Z,90.37
2023-04-19T04:48:18.074Z,89.61
2023-04-19T04:50:46.779Z,90.34
2023-04-19T04:53:14.228Z,90.38
2023-04-19T04:55:41.761Z,88.20
2023-04-19T04:58:09.302Z,85.89
2023-04-19T05:00:36.774Z,83.88
2023-04-19T05:03:04.534Z,84.37
2023-04-19T05:05:32.073Z,84.09
2023-04-19T05:08:01.140Z,82.25
2023-04-19T05:10:28.743Z,80.85
2023-04-19T05:12:56.517Z,82.25
2023-04-19T05:15:24.136Z,81.85
2023-04-19T05:17:51.551Z,78.13
2023-04-19T05:20:19.197Z,79.75
2023-04-19T05:22:46.813Z,79.11
2023-04-19T05:25:15.693Z,82.07
2023-04-19T05:27:43.087Z,80.72
2023-04-19T05:30:10.848Z,79.68
2023-04-19T05:32:38.272Z,78.61
2023-04-19T05:35:06.825Z,79.15
2023-04-19T05:37:34.196Z,77.22
2023-04-19T05:40:01.607Z,73.76
2023-04-19T05:42:31.541Z,71.49
2023-04-19T05:44:58.899Z,73.07
2023-04-19T05:47:26.293Z,72.76
2023-04-19T05:49:53.676Z,72.55
2023-04-19T05:52:21.051Z,72.33
2023-04-19T05:54:48.453Z,70.17
2023-04-19T05:57:15.824Z,70.44
2023-04-19T05:59:44.556Z,69.37
2023-04-19T06:02:12.103Z,69.24
2023-04-19T06:04:39.926Z,65.86
2023-04-19T06:07:17.442Z,63.55
2023-04-19T06:09:54.539Z,63.55
2023-04-19T06:12:21.925Z,64.89
2023-04-19T06:14:51.140Z,61.13
2023-04-19T06:17:23.397Z,59.76
2023-04-19T06:19:51.069Z,61.56
2023-04-19T06:22:18.508Z,59.90
2023-04-19T06:24:46.259Z,56.88
2023-04-19T06:27:13.745Z,57.26
2023-04-19T06:29:41.400Z,58.24
2023-04-19T06:32:10.518Z,55.91
2023-04-19T06:34:37.897Z,55.99
2023-04-19T06:37:05.288Z,55.09
2023-04-19T06:39:32.744Z,55.79
2023-04-19T06:42:00.165Z,54.54
2023-04-19T06:44:27.919Z,54.46
2023-04-19T06:46:55.456Z,54.58
2023-04-19T06:49:24.454Z,54.37
2023-04-19T06:51:51.907Z,54.56
2023-04-19T06:54:19.544Z,55.42
2023-04-19T06:56:48.670Z,55.99
2023-04-19T06:59:19.685Z,56.31
2023-04-19T07:01:48.248Z,58.41
2023-04-19T07:04:16.499Z,56.45
2023-04-19T07:06:49.168Z,55.55
2023-04-19T07:09:16.829Z,56.06
2023-04-19T07:11:44.250Z,56.39
2023-04-19T07:14:11.674Z,53.10
2023-04-19T07:16:39.094Z,52.52
2023-04-19T07:19:06.501Z,51.61
2023-04-19T07:21:35.086Z,50.99
2023-04-19T07:24:03.909Z,50.66
2023-04-19T07:26:31.389Z,50.94
2023-04-19T07:28:58.768Z,50.62
2023-04-19T07:31:26.523Z,50.72
2023-04-19T07:33:54.650Z,52.70
2023-04-19T07:36:22.237Z,52.24
2023-04-19T07:38:49.746Z,50.19
2023-04-19T07:41:18.829Z,53.13
2023-04-19T07:43:46.225Z,50.99
2023-04-19T07:46:16.179Z,51.83
2023-04-19T07:48:43.770Z,52.08
2023-04-19T07:51:12.083Z,51.29
2023-04-19T07:53:41.517Z,51.51
2023-04-19T07:56:11.008Z,51.67
2023-04-19T07:58:42.304Z,50.80
2023-04-19T08:01:10.408Z,50.57
2023-04-19T08:03:38.621Z,50.50
2023-04-19T08:06:08.181Z,50.09
2023-04-19T08:08:35.710Z,50.14
2023-04-19T08:11:03.279Z,50.88
2023-04-19T08:13:31.133Z,51.81
2023-04-19T08:18:30.192Z,51.22
2023-04-19T08:20:58.151Z,50.79
2023-04-19T08:23:29.696Z,50.80
2023-04-19T08:26:05.890Z,50.95
2023-04-19T08:28:33.239Z,51.92
2023-04-19T08:31:01.976Z,52.69
2023-04-19T08:33:29.647Z,50.35
2023-04-19T08:35:57.163Z,52.15
2023-04-19T08:38:24.607Z,50.93
2023-04-19T08:40:55.022Z,53.26
2023-04-19T08:43:22.626Z,51.66
2023-04-19T08:45:51.330Z,51.92
2023-04-19T08:48:20.154Z,52.72
2023-04-19T08:51:03.665Z,52.50
2023-04-19T08:53:34.827Z,51.94
2023-04-19T08:58:52.024Z,50.95
2023-04-19T09:01:33.600Z,50.92
2023-04-19T09:04:21.697Z,52.74
2023-04-19T09:06:52.855Z,52.59
2023-04-19T09:11:52.982Z,52.41
2023-04-19T09:14:22.150Z,52.02
2023-04-19T09:16:52.012Z,52.16
2023-04-19T09:19:24.735Z,50.09
2023-04-19T09:21:54.761Z,52.27
2023-04-19T09:25:04.436Z,51.32
2023-04-19T09:27:30.122Z,53.48
2023-04-19T09:29:59.303Z,51.83
2023-04-19T09:32:27.627Z,51.86
2023-04-19T09:34:58.243Z,53.06
2023-04-19T09:37:56.829Z,53.98
2023-04-19T09:40:23.671Z,52.78
2023-04-19T09:45:29.814Z,53.41
2023-04-19T09:48:03.035Z,53.70
2023-04-19T09:50:32.728Z,55.04
2023-04-19T09:53:01.412Z,54.50
2023-04-19T09:55:31.573Z,52.77
2023-04-19T09:58:03.246Z,53.49
2023-04-19T10:00:36.022Z,53.87
2023-04-19T10:03:11.255Z,53.00
2023-04-19T10:05:42.173Z,53.74
2023-04-19T10:08:10.957Z,53.32
2023-04-19T10:10:42.430Z,53.38
2023-04-19T10:15:51.239Z,54.00
2023-04-19T10:18:23.535Z,52.75
2023-04-19T10:20:56.331Z,53.00
2023-04-19T10:23:24.211Z,52.45
2023-04-19T10:25:56.717Z,51.91
2023-04-19T10:28:24.152Z,50.15
2023-04-19T10:30:56.269Z,50.03
2023-04-19T10:33:27.684Z,50.03
2023-04-19T10:35:59.239Z,47.78
2023-04-19T10:38:38.171Z,47.55
2023-04-19T10:41:14.413Z,48.08
2023-04-19T10:43:46.205Z,49.01
2023-04-19T10:46:36.813Z,48.44
2023-04-19T10:49:05.689Z,50.19
2023-04-19T10:51:36.670Z,49.99
2023-04-19T10:54:05.145Z,50.82
2023-04-19T10:56:59.182Z,49.29
2023-04-19T10:59:26.704Z,49.27
2023-04-19T11:01:57.510Z,46.69
2023-04-19T11:05:01.663Z,47.43
2023-04-19T11:07:38.233Z,48.25
2023-04-19T11:10:06.618Z,48.69
2023-04-19T11:12:35.130Z,50.50
2023-04-19T11:15:03.101Z,49.69
2023-04-19T11:17:32.266Z,50.40
2023-04-19T11:20:02.574Z,49.63
2023-04-19T11:22:35.869Z,48.60
2023-04-19T11:25:07.338Z,47.07
2023-04-19T11:27:35.326Z,46.76
2023-04-19T11:30:05.438Z,47.53
2023-04-19T11:32:33.433Z,47.27
2023-04-19T11:35:07.479Z,47.10
2023-04-19T11:37:36.980Z,46.12
2023-04-19T11:40:06.315Z,46.37
2023-04-19T11:42:34.071Z,47.77
2023-04-19T11:45:01.495Z,48.17
2023-04-19T11:47:29.150Z,47.99
2023-04-19T11:49:57.053Z,49.54
2023-04-19T11:52:25.508Z,49.58
2023-04-19T11:54:55.049Z,50.53
2023-04-19T11:57:29.617Z,50.30
2023-04-19T12:00:11.055Z,49.50
2023-04-19T12:02:40.884Z,49.04
2023-04-19T12:05:10.282Z,48.44
2023-04-19T12:07:38.032Z,47.57
2023-04-19T12:10:14.055Z,47.22
2023-04-19T12:12:41.614Z,46.35
2023-04-19T12:15:09.690Z,46.95
2023-04-19T12:17:57.649Z,46.28
2023-04-19T12:20:32.752Z,46.73
2023-04-19T12:23:00.465Z,47.95
2023-04-19T12:25:33.402Z,47.80
2023-04-19T12:28:02.050Z,47.43
2023-04-19T12:30:29.530Z,48.75
2023-04-19T12:32:57.088Z,48.59
2023-04-19T12:35:27.355Z,50.50
2023-04-19T12:37:55.659Z,50.29
2023-04-19T12:40:23.595Z,49.13
2023-04-19T12:42:53.000Z,49.26
2023-04-19T12:45:25.354Z,49.75
2023-04-19T12:47:55.631Z,50.13
2023-04-19T12:50:24.781Z,48.71
2023-04-19T12:53:02.165Z,48.97
2023-04-19T12:55:32.468Z,48.97
2023-04-19T12:58:02.270Z,47.68
2023-04-19T13:00:30.739Z,48.66
2023-04-19T13:02:59.781Z,48.52
2023-04-19T13:05:31.977Z,48.10
2023-04-19T13:08:02.344Z,48.73
2023-04-19T13:10:31.479Z,48.47
2023-04-19T13:13:04.536Z,48.96
2023-04-19T13:15:35.461Z,49.01
2023-04-19T13:18:03.904Z,49.52
2023-04-19T13:20:32.175Z,47.24
2023-04-19T13:23:01.142Z,46.88
2023-04-19T13:25:30.604Z,46.86
2023-04-19T13:27:59.130Z,46.73
2023-04-19T13:30:29.749Z,46.22
2023-04-19T13:32:58.586Z,47.69
2023-04-19T13:35:26.073Z,50.00
2023-04-19T13:37:53.459Z,49.78
2023-04-19T13:40:20.971Z,48.85
2023-04-19T13:42:48.423Z,50.84
2023-04-19T13:45:15.807Z,52.47
2023-04-19T13:47:43.226Z,58.20
2023-04-19T13:50:12.912Z,61.52
2023-04-19T13:52:40.440Z,58.69
2023-04-19T13:55:08.333Z,58.00
2023-04-19T13:57:35.698Z,58.46
2023-04-19T14:00:03.137Z,61.46
2023-04-19T14:02:30.784Z,60.73
2023-04-19T14:04:59.541Z,57.17
2023-04-19T14:07:28.400Z,58.04
2023-04-19T14:09:55.921Z,58.45
2023-04-19T14:12:23.347Z,60.95
2023-04-19T14:14:50.711Z,69.73
2023-04-19T14:17:18.124Z,73.35
2023-04-19T14:19:45.544Z,74.89
2023-04-19T14:22:13.505Z,75.96
2023-04-19T14:24:42.178Z,75.37
2023-04-19T14:27:11.443Z,75.81
2023-04-19T14:29:39.320Z,76.82
2023-04-19T14:32:21.580Z,78.33
2023-04-19T14:34:52.397Z,75.75
2023-04-19T14:37:19.823Z,76.88
2023-04-19T14:39:48.599Z,75.07
2023-04-19T14:42:16.113Z,74.85
2023-04-19T14:44:43.812Z,74.60
2023-04-19T14:47:11.442Z,77.01
2023-04-19T14:49:38.928Z,75.45
2023-04-19T14:52:06.304Z,78.26
2023-04-19T14:54:33.710Z,76.63
2023-04-19T14:57:02.435Z,79.10
2023-04-19T14:59:30.067Z,79.87
2023-04-19T15:01:57.759Z,80.81
2023-04-19T15:04:25.708Z,80.95
2023-04-19T15:06:53.603Z,81.14
2023-04-19T15:09:21.023Z,81.77
2023-04-19T15:11:48.378Z,83.53
2023-04-19T15:14:17.092Z,83.51
2023-04-19T15:16:44.469Z,81.81
2023-04-19T15:19:11.927Z,82.60
2023-04-19T15:21:39.295Z,81.97
2023-04-19T15:24:07.970Z,83.13
2023-04-19T15:26:35.857Z,84.20
2023-04-19T15:29:03.259Z,84.81
2023-04-19T15:31:32.550Z,84.15
2023-04-19T15:34:02.996Z,81.79
2023-04-19T15:36:31.037Z,84.31
2023-04-19T15:38:59.136Z,84.27
2023-04-19T15:41:26.592Z,82.36
2023-04-19T15:43:54.027Z,81.83
2023-04-19T15:46:21.406Z,79.86
2023-04-19T15:48:50.636Z,78.38
2023-04-19T15:51:18.100Z,77.78
2023-04-19T15:53:45.628Z,78.50
2023-04-19T15:56:13.012Z,77.58
2023-04-19T15:58:40.403Z,77.82
2023-04-19T16:01:09.515Z,78.59
2023-04-19T16:03:37.301Z,80.10
2023-04-19T16:06:06.207Z,80.33
2023-04-19T16:08:34.040Z,80.86
2023-04-19T16:11:01.561Z,81.46
2023-04-19T16:13:31.279Z,83.37
2023-04-19T16:15:58.912Z,80.86
2023-04-19T16:18:26.351Z,83.59
2023-04-19T16:20:54.647Z,82.75
2023-04-19T16:23:25.096Z,81.53
2023-04-19T16:25:53.428Z,83.84
2023-04-19T16:28:25.850Z,81.99
2023-04-19T16:30:53.570Z,82.22
2023-04-19T16:33:21.021Z,78.82
2023-04-19T16:35:51.862Z,81.19
2023-04-19T16:38:19.223Z,81.18
2023-04-19T16:40:48.601Z,80.33
2023-04-19T16:43:16.019Z,81.13
2023-04-19T16:45:43.555Z,79.58
2023-04-19T16:48:11.083Z,79.08
2023-04-19T16:50:38.512Z,82.06
2023-04-19T16:53:06.006Z,78.46
2023-04-19T16:55:33.404Z,78.61
2023-04-19T16:58:02.139Z,79.11
2023-04-19T17:00:29.989Z,83.10
2023-04-19T17:02:57.610Z,81.78
2023-04-19T17:05:28.874Z,83.21
2023-04-19T17:07:56.984Z,82.50
2023-04-19T17:10:25.201Z,85.28
2023-04-19T17:12:55.233Z,85.18
2023-04-19T17:15:24.008Z,86.47
2023-04-19T17:17:54.901Z,88.13
2023-04-19T17:20:22.319Z,85.58
2023-04-19T17:22:49.685Z,84.66
2023-04-19T17:25:17.058Z,87.41
2023-04-19T17:27:44.437Z,88.11
2023-04-19T17:30:12.580Z,87.68
2023-04-19T17:32:41.357Z,87.56
2023-04-19T17:35:09.654Z,86.40
2023-04-19T17:37:37.175Z,86.97
2023-04-19T17:40:05.226Z,87.07
2023-04-19T17:42:32.592Z,88.39
2023-04-19T17:45:00.250Z,88.42
2023-04-19T17:47:27.846Z,88.15
2023-04-19T17:50:06.568Z,88.98
2023-04-19T17:52:34.017Z,89.43
2023-04-19T17:55:02.278Z,89.81
2023-04-19T17:57:29.961Z,89.64
2023-04-19T17:59:57.316Z,90.07
2023-04-19T18:02:24.866Z,88.21
2023-04-19T18:04:52.498Z,87.27
2023-04-19T18:07:21.230Z,90.84
2023-04-19T18:09:48.577Z,91.96
2023-04-19T18:12:15.967Z,91.07
2023-04-19T18:14:43.358Z,91.49
2023-04-19T18:17:10.864Z,90.00
2023-04-19T18:19:38.290Z,90.14
2023-04-19T18:22:05.852Z,90.39
2023-04-19T18:24:35.571Z,90.41
2023-04-19T18:27:04.369Z,88.44
2023-04-19T18:29:31.944Z,87.68
2023-04-19T18:31:59.402Z,87.31
2023-04-19T18:34:28.821Z,87.91
2023-04-19T18:36:59.526Z,88.62
2023-04-19T18:39:26.996Z,86.90
2023-04-19T18:41:57.697Z,88.62
2023-04-19T18:44:49.698Z,87.96
2023-04-19T18:47:13.075Z,88.12
2023-04-19T18:49:40.489Z,87.21
2023-04-19T18:52:08.013Z,88.55
2023-04-19T18:54:35.618Z,87.72
2023-04-19T18:57:22.583Z,86.10
2023-04-19T18:59:51.661Z,88.13
2023-04-19T19:02:20.919Z,90.77
2023-04-19T19:04:56.755Z,88.72
2023-04-19T19:07:34.779Z,90.06
2023-04-19T19:10:09.628Z,85.60
2023-04-19T19:12:46.960Z,87.13
2023-04-19T19:15:14.690Z,88.89
2023-04-19T19:17:43.141Z,91.85
2023-04-19T19:20:11.294Z,90.93
2023-04-19T19:22:38.794Z,87.20
2023-04-19T19:28:06.170Z,86.90
2023-04-19T19:30:39.529Z,90.54
2023-04-19T19:33:07.045Z,93.46
2023-04-19T19:38:06.103Z,92.58
2023-04-19T19:40:33.841Z,92.58
2023-04-19T19:43:02.748Z,91.57
2023-04-19T19:45:30.514Z,89.83
2023-04-19T19:47:59.062Z,87.83
2023-04-19T19:51:05.040Z,87.63
2023-04-19T19:53:19.807Z,88.78
2023-04-19T19:55:47.179Z,89.04
2023-04-19T19:58:42.925Z,89.09
2023-04-19T20:01:04.210Z,89.98
2023-04-19T20:03:37.302Z,89.74
2023-04-19T20:06:35.725Z,89.44
2023-04-19T20:08:56.206Z,90.27
2023-04-19T20:11:25.818Z,90.04
2023-04-19T20:13:54.502Z,90.40
2023-04-19T20:16:21.920Z,91.25
2023-04-19T20:18:49.920Z,92.09
2023-04-19T20:21:19.680Z,92.93
2023-04-19T20:23:47.104Z,91.83
2023-04-19T20:26:14.487Z,91.29
2023-04-19T20:28:41.879Z,91.76
2023-04-19T20:31:10.683Z,92.34
2023-04-19T20:33:41.884Z,92.99
2023-04-19T20:36:09.455Z,93.03
2023-04-19T20:38:36.980Z,92.33
2023-04-19T20:41:04.416Z,91.97
2023-04-19T20:43:32.389Z,92.32
2023-04-19T20:45:59.883Z,92.04
2023-04-19T20:48:28.625Z,90.73
2023-04-19T20:50:56.094Z,92.07
2023-04-19T20:53:23.487Z,92.04
2023-04-19T20:55:51.808Z,93.25
2023-04-19T20:58:19.194Z,93.39
2023-04-19T21:00:46.611Z,93.80
2023-04-19T21:03:14.239Z,92.69
2023-04-19T21:05:43.046Z,92.70
2023-04-19T21:08:10.487Z,92.10
2023-04-19T21:10:37.819Z,92.84
2023-04-19T21:13:05.170Z,93.26
2023-04-19T21:15:32.602Z,92.64
2023-04-19T21:18:00.006Z,92.98
2023-04-19T21:20:27.579Z,94.09
2023-04-19T21:22:56.254Z,95.17
2023-04-19T21:25:23.866Z,94.58
2023-04-19T21:27:51.272Z,95.57
2023-04-19T21:30:20.067Z,93.60
2023-04-19T21:32:48.296Z,93.49
2023-04-19T21:35:15.759Z,92.59
2023-04-19T21:37:43.208Z,93.21
2023-04-19T21:40:12.659Z,93.56
2023-04-19T21:42:40.066Z,93.59
2023-04-19T21:45:08.978Z,95.01
2023-04-19T21:47:36.407Z,93.40
2023-04-19T21:50:04.513Z,93.08
2023-04-19T21:52:31.912Z,92.54
2023-04-19T21:54:59.350Z,93.45
2023-04-19T21:57:28.181Z,93.45
2023-04-19T21:59:55.602Z,93.96
2023-04-19T22:02:23.151Z,94.56
2023-04-19T22:04:50.813Z,93.13
2023-04-19T22:07:19.280Z,94.14
2023-04-19T22:09:46.852Z,94.26
2023-04-19T22:12:14.272Z,93.66
2023-04-19T22:14:43.271Z,92.82
2023-04-19T22:17:10.634Z,93.97
2023-04-19T22:19:38.264Z,94.82
2023-04-19T22:22:05.746Z,94.87
2023-04-19T22:24:33.833Z,94.27
2023-04-19T22:27:02.392Z,94.38
2023-04-19T22:29:29.798Z,94.31
2023-04-19T22:31:58.643Z,94.27
2023-04-19T22:34:26.179Z,94.30
2023-04-19T22:36:53.568Z,93.48
2023-04-19T22:39:21.081Z,94.59
2023-04-19T22:41:48.567Z,94.78
2023-04-19T22:44:15.932Z,94.17
2023-04-19T22:46:43.770Z,94.58
2023-04-19T22:49:12.992Z,94.51
2023-04-19T22:51:42.290Z,95.85
2023-04-19T22:54:09.665Z,94.82
2023-04-19T22:56:37.057Z,94.72
2023-04-19T22:59:04.467Z,94.78
2023-04-19T23:01:32.176Z,96.51
2023-04-19T23:03:59.611Z,97.07
2023-04-19T23:06:29.362Z,97.33
2023-04-19T23:08:56.724Z,96.97
2023-04-19T23:11:25.100Z,96.05
2023-04-19T23:13:53.696Z,96.00
2023-04-19T23:16:22.470Z,95.43
2023-04-19T23:18:49.928Z,96.83
2023-04-19T23:21:17.355Z,95.75
2023-04-19T23:23:46.081Z,95.33
2023-04-19T23:26:13.537Z,94.51
2023-04-19T23:28:40.972Z,94.79
2023-04-19T23:31:08.403Z,94.70
2023-04-19T23:33:36.151Z,93.98
2023-04-19T23:36:03.706Z,95.17
2023-04-19T23:38:31.097Z,95.59
2023-04-19T23:40:59.848Z,95.85
2023-04-19T23:43:27.280Z,95.20
2023-04-19T23:45:54.658Z,94.12
2023-04-19T23:48:22.025Z,93.88
2023-04-19T23:50:49.410Z,93.59
2023-04-19T23:53:16.775Z,93.96
2023-04-19T23:55:44.180Z,93.50
2023-04-19T23:58:12.975Z,94.04
